sensor_id;sensor_type;location;lat;lon;timestamp;P1;durP1;ratioP1;P2;durP2;ratioP2
1925;SDS011;964;42.606;23.588;2024-01-25T00:00:05;5.63;;;4.20;;
1925;SDS011;964;42.606;23.588;2024-01-25T00:02:33;10.00;;;4.13;;
1925;SDS011;964;42.606;23.588;2024-01-25T00:05:01;3.97;;;3.33;;
1925;SDS011;964;42.606;23.588;2024-01-25T00:07:28;4.60;;;3.30;;
1925;SDS011;964;42.606;23.588;2024-01-25T00:09:55;7.77;;;3.87;;
1925;SDS011;964;42.606;23.588;2024-01-25T00:12:22;4.60;;;3.10;;
1925;SDS011;964;42.606;23.588;2024-01-25T00:14:49;10.27;;;5.30;;
1925;SDS011;964;42.606;23.588;2024-01-25T00:17:17;7.00;;;4.60;;
1925;SDS011;964;42.606;23.588;2024-01-25T00:19:44;5.83;;;3.60;;
1925;SDS011;964;42.606;23.588;2024-01-25T00:22:12;7.47;;;3.90;;
1925;SDS011;964;42.606;23.588;2024-01-25T00:24:38;7.30;;;4.60;;
1925;SDS011;964;42.606;23.588;2024-01-25T00:27:05;10.87;;;4.83;;
1925;SDS011;964;42.606;23.588;2024-01-25T00:29:32;6.00;;;4.40;;
1925;SDS011;964;42.606;23.588;2024-01-25T00:32:00;8.63;;;3.50;;
1925;SDS011;964;42.606;23.588;2024-01-25T00:34:27;8.33;;;4.60;;
1925;SDS011;964;42.606;23.588;2024-01-25T00:36:54;7.77;;;4.33;;
1925;SDS011;964;42.606;23.588;2024-01-25T00:39:23;7.50;;;4.00;;
1925;SDS011;964;42.606;23.588;2024-01-25T00:41:50;6.03;;;4.27;;
1925;SDS011;964;42.606;23.588;2024-01-25T00:44:18;6.27;;;3.83;;
1925;SDS011;964;42.606;23.588;2024-01-25T00:46:45;5.67;;;3.67;;
1925;SDS011;964;42.606;23.588;2024-01-25T00:49:12;6.00;;;4.70;;
1925;SDS011;964;42.606;23.588;2024-01-25T00:51:40;10.70;;;6.30;;
1925;SDS011;964;42.606;23.588;2024-01-25T00:54:12;9.03;;;4.57;;
1925;SDS011;964;42.606;23.588;2024-01-25T00:56:42;10.80;;;6.43;;
1925;SDS011;964;42.606;23.588;2024-01-25T00:59:09;22.73;;;9.63;;
1925;SDS011;964;42.606;23.588;2024-01-25T01:01:37;23.53;;;12.17;;
1925;SDS011;964;42.606;23.588;2024-01-25T01:04:05;34.13;;;14.80;;
1925;SDS011;964;42.606;23.588;2024-01-25T01:06:33;41.70;;;18.70;;
1925;SDS011;964;42.606;23.588;2024-01-25T01:09:00;29.47;;;14.40;;
1925;SDS011;964;42.606;23.588;2024-01-25T01:11:26;42.90;;;16.30;;
1925;SDS011;964;42.606;23.588;2024-01-25T01:13:54;36.80;;;15.43;;
1925;SDS011;964;42.606;23.588;2024-01-25T01:16:21;21.43;;;10.43;;
1925;SDS011;964;42.606;23.588;2024-01-25T01:18:48;11.07;;;7.27;;
1925;SDS011;964;42.606;23.588;2024-01-25T01:21:15;20.80;;;8.97;;
1925;SDS011;964;42.606;23.588;2024-01-25T01:23:42;14.73;;;7.40;;
1925;SDS011;964;42.606;23.588;2024-01-25T01:26:08;18.20;;;8.67;;
1925;SDS011;964;42.606;23.588;2024-01-25T01:28:35;15.87;;;9.30;;
1925;SDS011;964;42.606;23.588;2024-01-25T01:31:03;16.53;;;10.17;;
1925;SDS011;964;42.606;23.588;2024-01-25T01:33:30;17.70;;;9.80;;
1925;SDS011;964;42.606;23.588;2024-01-25T01:35:57;15.83;;;9.90;;
1925;SDS011;964;42.606;23.588;2024-01-25T01:38:23;18.77;;;9.80;;
1925;SDS011;964;42.606;23.588;2024-01-25T01:40:50;21.90;;;10.20;;
1925;SDS011;964;42.606;23.588;2024-01-25T01:43:17;22.50;;;13.30;;
1925;SDS011;964;42.606;23.588;2024-01-25T01:45:45;22.60;;;12.10;;
1925;SDS011;964;42.606;23.588;2024-01-25T01:48:13;22.17;;;12.30;;
1925;SDS011;964;42.606;23.588;2024-01-25T01:50:40;32.03;;;16.93;;
1925;SDS011;964;42.606;23.588;2024-01-25T01:53:07;21.83;;;11.67;;
1925;SDS011;964;42.606;23.588;2024-01-25T01:55:34;19.93;;;12.53;;
1925;SDS011;964;42.606;23.588;2024-01-25T01:58:01;24.40;;;16.07;;
1925;SDS011;964;42.606;23.588;2024-01-25T02:00:28;17.10;;;11.30;;
1925;SDS011;964;42.606;23.588;2024-01-25T02:02:56;15.40;;;10.00;;
1925;SDS011;964;42.606;23.588;2024-01-25T02:05:25;18.43;;;10.90;;
1925;SDS011;964;42.606;23.588;2024-01-25T02:07:51;13.20;;;10.53;;
1925;SDS011;964;42.606;23.588;2024-01-25T02:10:19;20.33;;;12.07;;
1925;SDS011;964;42.606;23.588;2024-01-25T02:12:46;20.10;;;11.57;;
1925;SDS011;964;42.606;23.588;2024-01-25T02:15:12;13.70;;;9.00;;
1925;SDS011;964;42.606;23.588;2024-01-25T02:17:39;16.83;;;11.10;;
1925;SDS011;964;42.606;23.588;2024-01-25T02:20:08;11.00;;;7.13;;
1925;SDS011;964;42.606;23.588;2024-01-25T02:22:37;14.30;;;10.40;;
1925;SDS011;964;42.606;23.588;2024-01-25T02:25:04;17.27;;;10.17;;
1925;SDS011;964;42.606;23.588;2024-01-25T02:27:31;16.03;;;10.10;;
1925;SDS011;964;42.606;23.588;2024-01-25T02:30:03;19.13;;;9.07;;
1925;SDS011;964;42.606;23.588;2024-01-25T02:32:31;13.80;;;7.90;;
1925;SDS011;964;42.606;23.588;2024-01-25T02:34:58;12.40;;;8.02;;
1925;SDS011;964;42.606;23.588;2024-01-25T02:37:24;15.67;;;8.30;;
1925;SDS011;964;42.606;23.588;2024-01-25T02:39:52;18.50;;;7.93;;
1925;SDS011;964;42.606;23.588;2024-01-25T02:42:19;10.03;;;6.33;;
1925;SDS011;964;42.606;23.588;2024-01-25T02:44:46;9.63;;;7.10;;
1925;SDS011;964;42.606;23.588;2024-01-25T02:47:12;13.80;;;7.37;;
1925;SDS011;964;42.606;23.588;2024-01-25T02:49:40;10.37;;;6.60;;
1925;SDS011;964;42.606;23.588;2024-01-25T02:52:07;7.83;;;5.97;;
1925;SDS011;964;42.606;23.588;2024-01-25T02:54:34;12.70;;;6.40;;
1925;SDS011;964;42.606;23.588;2024-01-25T02:57:03;10.97;;;5.67;;
1925;SDS011;964;42.606;23.588;2024-01-25T02:59:30;9.73;;;6.10;;
1925;SDS011;964;42.606;23.588;2024-01-25T03:01:57;11.80;;;6.33;;
1925;SDS011;964;42.606;23.588;2024-01-25T03:04:24;9.73;;;6.20;;
1925;SDS011;964;42.606;23.588;2024-01-25T03:06:50;9.60;;;6.10;;
1925;SDS011;964;42.606;23.588;2024-01-25T03:09:17;9.43;;;5.77;;
1925;SDS011;964;42.606;23.588;2024-01-25T03:11:43;16.30;;;7.23;;
1925;SDS011;964;42.606;23.588;2024-01-25T03:14:11;10.67;;;6.97;;
1925;SDS011;964;42.606;23.588;2024-01-25T03:16:38;9.13;;;6.30;;
1925;SDS011;964;42.606;23.588;2024-01-25T03:19:05;8.13;;;5.50;;
1925;SDS011;964;42.606;23.588;2024-01-25T03:21:31;10.50;;;5.53;;
1925;SDS011;964;42.606;23.588;2024-01-25T03:23:58;10.50;;;7.25;;
1925;SDS011;964;42.606;23.588;2024-01-25T03:26:26;10.32;;;6.57;;
1925;SDS011;964;42.606;23.588;2024-01-25T03:28:53;8.30;;;5.87;;
1925;SDS011;964;42.606;23.588;2024-01-25T03:31:21;11.38;;;5.78;;
1925;SDS011;964;42.606;23.588;2024-01-25T03:33:47;10.43;;;5.93;;
1925;SDS011;964;42.606;23.588;2024-01-25T03:36:14;7.10;;;3.83;;
1925;SDS011;964;42.606;23.588;2024-01-25T03:38:41;8.20;;;4.73;;
1925;SDS011;964;42.606;23.588;2024-01-25T03:41:08;6.07;;;4.33;;
1925;SDS011;964;42.606;23.588;2024-01-25T03:43:35;7.37;;;5.17;;
1925;SDS011;964;42.606;23.588;2024-01-25T03:46:01;5.13;;;4.47;;
1925;SDS011;964;42.606;23.588;2024-01-25T03:48:30;6.47;;;4.80;;
1925;SDS011;964;42.606;23.588;2024-01-25T03:50:57;4.90;;;4.07;;
1925;SDS011;964;42.606;23.588;2024-01-25T03:53:23;8.03;;;4.73;;
1925;SDS011;964;42.606;23.588;2024-01-25T03:55:50;8.07;;;4.80;;
1925;SDS011;964;42.606;23.588;2024-01-25T03:58:16;11.67;;;7.90;;
1925;SDS011;964;42.606;23.588;2024-01-25T04:00:44;12.77;;;7.40;;
1925;SDS011;964;42.606;23.588;2024-01-25T04:03:10;11.50;;;7.30;;
1925;SDS011;964;42.606;23.588;2024-01-25T04:05:38;12.60;;;7.67;;
1925;SDS011;964;42.606;23.588;2024-01-25T04:08:05;12.80;;;7.50;;
1925;SDS011;964;42.606;23.588;2024-01-25T04:10:32;16.53;;;8.10;;
1925;SDS011;964;42.606;23.588;2024-01-25T04:12:59;12.37;;;7.13;;
1925;SDS011;964;42.606;23.588;2024-01-25T04:15:27;13.10;;;7.90;;
1925;SDS011;964;42.606;23.588;2024-01-25T04:17:54;17.52;;;11.20;;
1925;SDS011;964;42.606;23.588;2024-01-25T04:20:21;25.60;;;17.67;;
1925;SDS011;964;42.606;23.588;2024-01-25T04:22:49;39.13;;;20.97;;
1925;SDS011;964;42.606;23.588;2024-01-25T04:25:16;48.50;;;21.87;;
1925;SDS011;964;42.606;23.588;2024-01-25T04:27:42;38.13;;;18.80;;
1925;SDS011;964;42.606;23.588;2024-01-25T04:30:09;55.00;;;24.17;;
1925;SDS011;964;42.606;23.588;2024-01-25T04:32:36;82.17;;;31.53;;
1925;SDS011;964;42.606;23.588;2024-01-25T04:35:03;66.03;;;29.10;;
1925;SDS011;964;42.606;23.588;2024-01-25T04:37:30;54.27;;;25.27;;
1925;SDS011;964;42.606;23.588;2024-01-25T04:39:58;35.57;;;19.40;;
1925;SDS011;964;42.606;23.588;2024-01-25T04:42:24;103.07;;;37.37;;
1925;SDS011;964;42.606;23.588;2024-01-25T04:44:52;29.37;;;15.23;;
1925;SDS011;964;42.606;23.588;2024-01-25T04:47:19;23.60;;;11.53;;
1925;SDS011;964;42.606;23.588;2024-01-25T04:49:45;45.97;;;21.00;;
1925;SDS011;964;42.606;23.588;2024-01-25T04:52:12;31.77;;;13.73;;
1925;SDS011;964;42.606;23.588;2024-01-25T04:54:39;27.20;;;14.13;;
1925;SDS011;964;42.606;23.588;2024-01-25T04:57:07;24.27;;;13.27;;
1925;SDS011;964;42.606;23.588;2024-01-25T04:59:33;35.60;;;19.52;;
1925;SDS011;964;42.606;23.588;2024-01-25T05:02:00;29.57;;;16.10;;
1925;SDS011;964;42.606;23.588;2024-01-25T05:04:28;27.63;;;14.25;;
1925;SDS011;964;42.606;23.588;2024-01-25T05:06:56;34.83;;;14.10;;
1925;SDS011;964;42.606;23.588;2024-01-25T05:09:26;37.97;;;15.33;;
1925;SDS011;964;42.606;23.588;2024-01-25T05:11:53;16.27;;;8.33;;
1925;SDS011;964;42.606;23.588;2024-01-25T05:14:24;17.60;;;8.57;;
1925;SDS011;964;42.606;23.588;2024-01-25T05:16:51;20.00;;;9.97;;
1925;SDS011;964;42.606;23.588;2024-01-25T05:19:18;10.02;;;6.30;;
1925;SDS011;964;42.606;23.588;2024-01-25T05:21:44;8.17;;;5.17;;
1925;SDS011;964;42.606;23.588;2024-01-25T05:24:11;6.97;;;4.60;;
1925;SDS011;964;42.606;23.588;2024-01-25T05:26:38;7.10;;;4.80;;
1925;SDS011;964;42.606;23.588;2024-01-25T05:29:04;6.97;;;4.70;;
1925;SDS011;964;42.606;23.588;2024-01-25T05:31:32;8.20;;;5.33;;
1925;SDS011;964;42.606;23.588;2024-01-25T05:33:59;6.50;;;4.47;;
1925;SDS011;964;42.606;23.588;2024-01-25T05:36:25;6.73;;;4.37;;
1925;SDS011;964;42.606;23.588;2024-01-25T05:38:52;9.07;;;5.00;;
1925;SDS011;964;42.606;23.588;2024-01-25T05:41:19;6.30;;;4.47;;
1925;SDS011;964;42.606;23.588;2024-01-25T05:43:45;7.30;;;5.53;;
1925;SDS011;964;42.606;23.588;2024-01-25T05:46:12;6.90;;;4.70;;
1925;SDS011;964;42.606;23.588;2024-01-25T05:48:40;5.53;;;3.77;;
1925;SDS011;964;42.606;23.588;2024-01-25T05:51:06;8.97;;;4.57;;
1925;SDS011;964;42.606;23.588;2024-01-25T05:53:33;5.80;;;4.20;;
1925;SDS011;964;42.606;23.588;2024-01-25T05:56:00;5.83;;;4.70;;
1925;SDS011;964;42.606;23.588;2024-01-25T05:58:29;5.40;;;4.10;;
1925;SDS011;964;42.606;23.588;2024-01-25T06:00:56;8.83;;;4.10;;
1925;SDS011;964;42.606;23.588;2024-01-25T06:03:23;8.10;;;4.50;;
1925;SDS011;964;42.606;23.588;2024-01-25T06:05:51;5.83;;;4.30;;
1925;SDS011;964;42.606;23.588;2024-01-25T06:08:18;6.57;;;4.27;;
1925;SDS011;964;42.606;23.588;2024-01-25T06:10:44;4.93;;;3.80;;
1925;SDS011;964;42.606;23.588;2024-01-25T06:13:11;7.90;;;4.60;;
1925;SDS011;964;42.606;23.588;2024-01-25T06:15:37;5.90;;;3.87;;
1925;SDS011;964;42.606;23.588;2024-01-25T06:18:05;4.90;;;3.67;;
1925;SDS011;964;42.606;23.588;2024-01-25T06:20:31;4.90;;;3.27;;
1925;SDS011;964;42.606;23.588;2024-01-25T06:22:59;3.43;;;2.77;;
1925;SDS011;964;42.606;23.588;2024-01-25T06:25:26;4.97;;;3.00;;
1925;SDS011;964;42.606;23.588;2024-01-25T06:27:55;5.53;;;3.40;;
1925;SDS011;964;42.606;23.588;2024-01-25T06:30:23;6.10;;;3.40;;
1925;SDS011;964;42.606;23.588;2024-01-25T06:32:50;9.67;;;3.83;;
1925;SDS011;964;42.606;23.588;2024-01-25T06:35:16;4.50;;;2.93;;
1925;SDS011;964;42.606;23.588;2024-01-25T06:37:43;6.93;;;4.20;;
1925;SDS011;964;42.606;23.588;2024-01-25T06:40:11;9.60;;;4.53;;
1925;SDS011;964;42.606;23.588;2024-01-25T06:42:38;6.10;;;2.87;;
1925;SDS011;964;42.606;23.588;2024-01-25T06:45:05;9.65;;;4.10;;
1925;SDS011;964;42.606;23.588;2024-01-25T06:47:31;5.37;;;3.50;;
1925;SDS011;964;42.606;23.588;2024-01-25T06:49:57;4.07;;;3.00;;
1925;SDS011;964;42.606;23.588;2024-01-25T06:52:24;7.93;;;3.17;;
1925;SDS011;964;42.606;23.588;2024-01-25T06:54:51;4.67;;;3.47;;
1925;SDS011;964;42.606;23.588;2024-01-25T06:57:19;4.70;;;2.93;;
1925;SDS011;964;42.606;23.588;2024-01-25T06:59:46;4.63;;;3.50;;
1925;SDS011;964;42.606;23.588;2024-01-25T07:02:13;4.07;;;3.17;;
1925;SDS011;964;42.606;23.588;2024-01-25T07:04:39;5.90;;;3.30;;
1925;SDS011;964;42.606;23.588;2024-01-25T07:07:06;4.90;;;3.20;;
1925;SDS011;964;42.606;23.588;2024-01-25T07:09:33;6.27;;;3.33;;
1925;SDS011;964;42.606;23.588;2024-01-25T07:11:59;5.50;;;3.07;;
1925;SDS011;964;42.606;23.588;2024-01-25T07:14:27;6.87;;;3.00;;
1925;SDS011;964;42.606;23.588;2024-01-25T07:16:54;6.50;;;3.60;;
1925;SDS011;964;42.606;23.588;2024-01-25T07:19:20;6.43;;;4.00;;
1925;SDS011;964;42.606;23.588;2024-01-25T07:21:47;11.40;;;3.73;;
1925;SDS011;964;42.606;23.588;2024-01-25T07:24:14;6.60;;;4.07;;
1925;SDS011;964;42.606;23.588;2024-01-25T07:26:40;4.43;;;3.90;;
1925;SDS011;964;42.606;23.588;2024-01-25T07:29:07;5.27;;;4.00;;
1925;SDS011;964;42.606;23.588;2024-01-25T07:31:35;4.73;;;3.77;;
1925;SDS011;964;42.606;23.588;2024-01-25T07:34:02;5.40;;;4.00;;
1925;SDS011;964;42.606;23.588;2024-01-25T07:36:28;6.30;;;3.53;;
1925;SDS011;964;42.606;23.588;2024-01-25T07:38:55;5.80;;;4.40;;
1925;SDS011;964;42.606;23.588;2024-01-25T07:41:22;7.87;;;5.70;;
1925;SDS011;964;42.606;23.588;2024-01-25T07:43:48;6.10;;;3.23;;
1925;SDS011;964;42.606;23.588;2024-01-25T07:46:15;5.93;;;3.97;;
1925;SDS011;964;42.606;23.588;2024-01-25T07:48:43;11.90;;;4.90;;
1925;SDS011;964;42.606;23.588;2024-01-25T07:51:12;4.70;;;3.73;;
1925;SDS011;964;42.606;23.588;2024-01-25T07:53:39;6.65;;;4.10;;
1925;SDS011;964;42.606;23.588;2024-01-25T07:56:06;5.93;;;3.90;;
1925;SDS011;964;42.606;23.588;2024-01-25T07:58:34;10.97;;;4.27;;
1925;SDS011;964;42.606;23.588;2024-01-25T08:01:02;7.20;;;4.40;;
1925;SDS011;964;42.606;23.588;2024-01-25T08:03:30;3.80;;;3.40;;
1925;SDS011;964;42.606;23.588;2024-01-25T08:05:58;6.30;;;3.40;;
1925;SDS011;964;42.606;23.588;2024-01-25T08:08:28;5.47;;;3.23;;
1925;SDS011;964;42.606;23.588;2024-01-25T08:10:54;5.60;;;3.00;;
1925;SDS011;964;42.606;23.588;2024-01-25T08:13:21;6.30;;;3.47;;
1925;SDS011;964;42.606;23.588;2024-01-25T08:15:48;5.60;;;2.90;;
1925;SDS011;964;42.606;23.588;2024-01-25T08:18:15;10.20;;;5.93;;
1925;SDS011;964;42.606;23.588;2024-01-25T08:20:44;4.63;;;4.10;;
1925;SDS011;964;42.606;23.588;2024-01-25T08:23:13;5.47;;;3.20;;
1925;SDS011;964;42.606;23.588;2024-01-25T08:25:40;9.60;;;3.20;;
1925;SDS011;964;42.606;23.588;2024-01-25T08:28:06;7.07;;;3.00;;
1925;SDS011;964;42.606;23.588;2024-01-25T08:30:33;7.37;;;2.87;;
1925;SDS011;964;42.606;23.588;2024-01-25T08:33:00;5.33;;;3.00;;
1925;SDS011;964;42.606;23.588;2024-01-25T08:35:27;5.47;;;2.47;;
1925;SDS011;964;42.606;23.588;2024-01-25T08:37:53;7.70;;;2.30;;
1925;SDS011;964;42.606;23.588;2024-01-25T08:40:21;7.27;;;2.90;;
1925;SDS011;964;42.606;23.588;2024-01-25T08:42:48;6.37;;;2.97;;
1925;SDS011;964;42.606;23.588;2024-01-25T08:45:15;2.00;;;1.80;;
1925;SDS011;964;42.606;23.588;2024-01-25T08:47:44;4.87;;;2.57;;
1925;SDS011;964;42.606;23.588;2024-01-25T08:50:11;5.67;;;2.70;;
1925;SDS011;964;42.606;23.588;2024-01-25T08:52:38;7.10;;;3.13;;
1925;SDS011;964;42.606;23.588;2024-01-25T08:55:06;6.00;;;2.87;;
1925;SDS011;964;42.606;23.588;2024-01-25T08:57:36;4.73;;;3.37;;
1925;SDS011;964;42.606;23.588;2024-01-25T09:00:05;6.60;;;3.20;;
1925;SDS011;964;42.606;23.588;2024-01-25T09:02:35;8.40;;;3.60;;
1925;SDS011;964;42.606;23.588;2024-01-25T09:05:02;6.63;;;2.97;;
1925;SDS011;964;42.606;23.588;2024-01-25T09:07:29;6.60;;;3.00;;
1925;SDS011;964;42.606;23.588;2024-01-25T09:09:56;4.60;;;2.60;;
1925;SDS011;964;42.606;23.588;2024-01-25T09:12:23;3.83;;;2.10;;
1925;SDS011;964;42.606;23.588;2024-01-25T09:14:51;6.13;;;2.63;;
1925;SDS011;964;42.606;23.588;2024-01-25T09:17:18;5.90;;;2.50;;
1925;SDS011;964;42.606;23.588;2024-01-25T09:19:47;8.32;;;2.97;;
1925;SDS011;964;42.606;23.588;2024-01-25T09:22:14;3.70;;;2.37;;
1925;SDS011;964;42.606;23.588;2024-01-25T09:24:42;2.87;;;1.90;;
1925;SDS011;964;42.606;23.588;2024-01-25T09:27:09;5.30;;;2.47;;
1925;SDS011;964;42.606;23.588;2024-01-25T09:29:36;4.97;;;2.60;;
1925;SDS011;964;42.606;23.588;2024-01-25T09:32:11;8.80;;;3.57;;
1925;SDS011;964;42.606;23.588;2024-01-25T09:34:38;6.30;;;2.30;;
1925;SDS011;964;42.606;23.588;2024-01-25T09:37:05;3.67;;;2.37;;
1925;SDS011;964;42.606;23.588;2024-01-25T09:39:32;6.60;;;3.10;;
1925;SDS011;964;42.606;23.588;2024-01-25T09:42:00;7.53;;;2.90;;
1925;SDS011;964;42.606;23.588;2024-01-25T09:44:28;6.77;;;2.77;;
1925;SDS011;964;42.606;23.588;2024-01-25T09:46:55;6.40;;;2.63;;
1925;SDS011;964;42.606;23.588;2024-01-25T09:49:23;4.87;;;2.37;;
1925;SDS011;964;42.606;23.588;2024-01-25T09:51:50;4.20;;;2.55;;
1925;SDS011;964;42.606;23.588;2024-01-25T09:54:17;4.73;;;2.87;;
1925;SDS011;964;42.606;23.588;2024-01-25T09:56:45;6.93;;;2.50;;
1925;SDS011;964;42.606;23.588;2024-01-25T09:59:12;7.57;;;2.67;;
1925;SDS011;964;42.606;23.588;2024-01-25T10:01:40;4.03;;;2.90;;
1925;SDS011;964;42.606;23.588;2024-01-25T10:04:06;7.60;;;2.93;;
1925;SDS011;964;42.606;23.588;2024-01-25T10:06:35;6.80;;;3.10;;
1925;SDS011;964;42.606;23.588;2024-01-25T10:09:03;5.82;;;2.97;;
1925;SDS011;964;42.606;23.588;2024-01-25T10:11:34;5.27;;;3.10;;
1925;SDS011;964;42.606;23.588;2024-01-25T10:14:02;6.77;;;2.20;;
1925;SDS011;964;42.606;23.588;2024-01-25T10:16:29;5.87;;;2.80;;
1925;SDS011;964;42.606;23.588;2024-01-25T10:18:57;4.80;;;2.50;;
1925;SDS011;964;42.606;23.588;2024-01-25T10:21:24;3.77;;;2.63;;
1925;SDS011;964;42.606;23.588;2024-01-25T10:23:53;7.33;;;2.30;;
1925;SDS011;964;42.606;23.588;2024-01-25T10:26:25;6.07;;;3.00;;
1925;SDS011;964;42.606;23.588;2024-01-25T10:28:53;6.23;;;3.60;;
1925;SDS011;964;42.606;23.588;2024-01-25T10:31:22;8.73;;;3.23;;
1925;SDS011;964;42.606;23.588;2024-01-25T10:33:50;5.67;;;2.93;;
1925;SDS011;964;42.606;23.588;2024-01-25T10:36:18;7.63;;;3.60;;
1925;SDS011;964;42.606;23.588;2024-01-25T10:38:47;9.77;;;3.60;;
1925;SDS011;964;42.606;23.588;2024-01-25T10:41:16;5.73;;;3.10;;
1925;SDS011;964;42.606;23.588;2024-01-25T10:43:45;7.85;;;3.20;;
1925;SDS011;964;42.606;23.588;2024-01-25T10:46:12;5.73;;;2.63;;
1925;SDS011;964;42.606;23.588;2024-01-25T10:48:39;4.87;;;2.57;;
1925;SDS011;964;42.606;23.588;2024-01-25T10:51:07;3.87;;;2.80;;
1925;SDS011;964;42.606;23.588;2024-01-25T10:53:35;9.73;;;2.90;;
1925;SDS011;964;42.606;23.588;2024-01-25T10:56:04;3.35;;;2.50;;
1925;SDS011;964;42.606;23.588;2024-01-25T10:58:34;6.50;;;3.10;;
1925;SDS011;964;42.606;23.588;2024-01-25T11:01:01;2.87;;;2.30;;
1925;SDS011;964;42.606;23.588;2024-01-25T11:03:28;6.50;;;3.60;;
1925;SDS011;964;42.606;23.588;2024-01-25T11:06:05;6.83;;;3.20;;
1925;SDS011;964;42.606;23.588;2024-01-25T11:08:33;4.80;;;3.10;;
1925;SDS011;964;42.606;23.588;2024-01-25T11:11:03;5.77;;;2.70;;
1925;SDS011;964;42.606;23.588;2024-01-25T11:13:31;3.37;;;2.83;;
1925;SDS011;964;42.606;23.588;2024-01-25T11:16:10;7.50;;;2.87;;
1925;SDS011;964;42.606;23.588;2024-01-25T11:18:47;4.20;;;1.63;;
1925;SDS011;964;42.606;23.588;2024-01-25T11:21:21;11.80;;;3.40;;
1925;SDS011;964;42.606;23.588;2024-01-25T11:23:58;2.60;;;2.40;;
1925;SDS011;964;42.606;23.588;2024-01-25T11:26:25;6.78;;;2.58;;
1925;SDS011;964;42.606;23.588;2024-01-25T11:28:53;4.57;;;2.70;;
1925;SDS011;964;42.606;23.588;2024-01-25T11:31:21;4.40;;;3.15;;
1925;SDS011;964;42.606;23.588;2024-01-25T11:33:49;7.53;;;2.80;;
1925;SDS011;964;42.606;23.588;2024-01-25T11:36:19;5.67;;;2.23;;
1925;SDS011;964;42.606;23.588;2024-01-25T11:38:47;4.47;;;3.13;;
1925;SDS011;964;42.606;23.588;2024-01-25T11:41:14;3.33;;;2.20;;
1925;SDS011;964;42.606;23.588;2024-01-25T11:43:41;5.50;;;2.77;;
1925;SDS011;964;42.606;23.588;2024-01-25T11:46:09;4.60;;;2.50;;
1925;SDS011;964;42.606;23.588;2024-01-25T11:48:38;2.53;;;2.33;;
1925;SDS011;964;42.606;23.588;2024-01-25T11:51:06;4.70;;;2.40;;
1925;SDS011;964;42.606;23.588;2024-01-25T11:53:32;5.13;;;2.60;;
1925;SDS011;964;42.606;23.588;2024-01-25T11:55:59;3.67;;;2.40;;
1925;SDS011;964;42.606;23.588;2024-01-25T11:58:26;5.37;;;2.03;;
1925;SDS011;964;42.606;23.588;2024-01-25T12:00:53;3.00;;;1.80;;
1925;SDS011;964;42.606;23.588;2024-01-25T12:03:22;9.47;;;2.90;;
1925;SDS011;964;42.606;23.588;2024-01-25T12:05:49;7.57;;;2.97;;
1925;SDS011;964;42.606;23.588;2024-01-25T12:08:16;2.90;;;2.13;;
1925;SDS011;964;42.606;23.588;2024-01-25T12:10:43;4.00;;;2.83;;
1925;SDS011;964;42.606;23.588;2024-01-25T12:13:10;4.03;;;2.60;;
1925;SDS011;964;42.606;23.588;2024-01-25T12:15:37;5.60;;;2.50;;
1925;SDS011;964;42.606;23.588;2024-01-25T12:18:05;4.80;;;2.43;;
1925;SDS011;964;42.606;23.588;2024-01-25T12:20:34;3.53;;;1.60;;
1925;SDS011;964;42.606;23.588;2024-01-25T12:23:02;5.97;;;2.77;;
1925;SDS011;964;42.606;23.588;2024-01-25T12:25:29;4.03;;;2.23;;
1925;SDS011;964;42.606;23.588;2024-01-25T12:27:56;6.60;;;2.20;;
1925;SDS011;964;42.606;23.588;2024-01-25T12:30:23;7.70;;;2.70;;
1925;SDS011;964;42.606;23.588;2024-01-25T12:32:50;2.83;;;2.20;;
1925;SDS011;964;42.606;23.588;2024-01-25T12:35:16;11.10;;;2.23;;
1925;SDS011;964;42.606;23.588;2024-01-25T12:37:44;3.70;;;2.30;;
1925;SDS011;964;42.606;23.588;2024-01-25T12:40:11;7.03;;;3.27;;
1925;SDS011;964;42.606;23.588;2024-01-25T12:42:38;5.30;;;2.27;;
1925;SDS011;964;42.606;23.588;2024-01-25T12:45:05;4.33;;;1.83;;
1925;SDS011;964;42.606;23.588;2024-01-25T12:47:33;4.07;;;2.17;;
1925;SDS011;964;42.606;23.588;2024-01-25T12:49:59;3.20;;;1.80;;
1925;SDS011;964;42.606;23.588;2024-01-25T12:52:26;5.77;;;2.37;;
1925;SDS011;964;42.606;23.588;2024-01-25T12:54:54;14.07;;;2.60;;
1925;SDS011;964;42.606;23.588;2024-01-25T12:57:21;3.90;;;2.30;;
1925;SDS011;964;42.606;23.588;2024-01-25T12:59:48;8.27;;;2.37;;
1925;SDS011;964;42.606;23.588;2024-01-25T13:02:15;3.53;;;2.30;;
1925;SDS011;964;42.606;23.588;2024-01-25T13:04:42;4.87;;;2.23;;
1925;SDS011;964;42.606;23.588;2024-01-25T13:07:08;4.23;;;2.43;;
1925;SDS011;964;42.606;23.588;2024-01-25T13:09:35;7.20;;;2.67;;
1925;SDS011;964;42.606;23.588;2024-01-25T13:12:04;4.53;;;2.30;;
1925;SDS011;964;42.606;23.588;2024-01-25T13:14:31;4.77;;;2.53;;
1925;SDS011;964;42.606;23.588;2024-01-25T13:16:58;4.20;;;2.53;;
1925;SDS011;964;42.606;23.588;2024-01-25T13:19:25;3.00;;;1.97;;
1925;SDS011;964;42.606;23.588;2024-01-25T13:21:52;8.43;;;2.47;;
1925;SDS011;964;42.606;23.588;2024-01-25T13:24:18;5.07;;;2.30;;
1925;SDS011;964;42.606;23.588;2024-01-25T13:26:45;6.00;;;2.30;;
1925;SDS011;964;42.606;23.588;2024-01-25T13:29:13;4.50;;;3.07;;
1925;SDS011;964;42.606;23.588;2024-01-25T13:31:40;3.80;;;2.10;;
1925;SDS011;964;42.606;23.588;2024-01-25T13:34:07;3.50;;;2.17;;
1925;SDS011;964;42.606;23.588;2024-01-25T13:36:34;4.10;;;2.30;;
1925;SDS011;964;42.606;23.588;2024-01-25T13:39:01;4.73;;;2.40;;
1925;SDS011;964;42.606;23.588;2024-01-25T13:41:28;5.13;;;2.30;;
1925;SDS011;964;42.606;23.588;2024-01-25T13:43:55;5.67;;;2.27;;
1925;SDS011;964;42.606;23.588;2024-01-25T13:46:23;3.80;;;2.00;;
1925;SDS011;964;42.606;23.588;2024-01-25T13:48:50;3.87;;;2.03;;
1925;SDS011;964;42.606;23.588;2024-01-25T13:51:17;5.63;;;2.70;;
1925;SDS011;964;42.606;23.588;2024-01-25T13:53:43;4.43;;;2.23;;
1925;SDS011;964;42.606;23.588;2024-01-25T13:56:11;3.73;;;2.10;;
1925;SDS011;964;42.606;23.588;2024-01-25T13:58:37;7.73;;;2.90;;
1925;SDS011;964;42.606;23.588;2024-01-25T14:01:04;3.30;;;2.20;;
1925;SDS011;964;42.606;23.588;2024-01-25T14:03:32;2.00;;;1.40;;
1925;SDS011;964;42.606;23.588;2024-01-25T14:05:59;5.40;;;1.80;;
1925;SDS011;964;42.606;23.588;2024-01-25T14:08:29;5.87;;;2.70;;
1925;SDS011;964;42.606;23.588;2024-01-25T14:10:56;2.20;;;1.90;;
1925;SDS011;964;42.606;23.588;2024-01-25T14:13:22;7.95;;;2.97;;
1925;SDS011;964;42.606;23.588;2024-01-25T14:15:49;3.30;;;2.23;;
1925;SDS011;964;42.606;23.588;2024-01-25T14:18:16;6.87;;;2.57;;
1925;SDS011;964;42.606;23.588;2024-01-25T14:20:44;9.17;;;2.23;;
1925;SDS011;964;42.606;23.588;2024-01-25T14:23:11;6.83;;;2.60;;
1925;SDS011;964;42.606;23.588;2024-01-25T14:25:38;3.87;;;1.80;;
1925;SDS011;964;42.606;23.588;2024-01-25T14:28:05;8.30;;;2.03;;
1925;SDS011;964;42.606;23.588;2024-01-25T14:30:31;4.67;;;2.60;;
1925;SDS011;964;42.606;23.588;2024-01-25T14:32:58;3.77;;;1.73;;
1925;SDS011;964;42.606;23.588;2024-01-25T14:35:25;2.63;;;1.97;;
1925;SDS011;964;42.606;23.588;2024-01-25T14:37:54;1.93;;;1.50;;
1925;SDS011;964;42.606;23.588;2024-01-25T14:40:21;3.93;;;1.90;;
1925;SDS011;964;42.606;23.588;2024-01-25T14:42:48;11.23;;;3.70;;
1925;SDS011;964;42.606;23.588;2024-01-25T14:45:15;6.07;;;2.80;;
1925;SDS011;964;42.606;23.588;2024-01-25T14:47:42;5.60;;;2.90;;
1925;SDS011;964;42.606;23.588;2024-01-25T14:50:09;5.33;;;2.20;;
1925;SDS011;964;42.606;23.588;2024-01-25T14:52:36;4.33;;;2.00;;
1925;SDS011;964;42.606;23.588;2024-01-25T14:55:04;5.63;;;2.47;;
1925;SDS011;964;42.606;23.588;2024-01-25T14:57:31;2.80;;;2.00;;
1925;SDS011;964;42.606;23.588;2024-01-25T14:59:58;7.17;;;2.57;;
1925;SDS011;964;42.606;23.588;2024-01-25T15:02:25;3.70;;;2.10;;
1925;SDS011;964;42.606;23.588;2024-01-25T15:04:52;5.13;;;2.73;;
1925;SDS011;964;42.606;23.588;2024-01-25T15:07:18;7.73;;;2.27;;
1925;SDS011;964;42.606;23.588;2024-01-25T15:09:46;7.03;;;2.60;;